Time;durP1;ratioP1;P1;durP2;ratioP2;P2;SDS_P1;SDS_P2;PMS_P1;PMS_P2;Temp;Humidity;BMP_temperature;BMP_pressure;BME280_temperature;BME280_humidity;BME280_pressure;Samples;Min_cycle;Max_cycle;Signal;HPM_P1;HPM_P2
2024/02/17 00:00:26;;;;;;;;;;;11.50;99.90;;;;;;5009045;28;20024;-77
2024/02/17 00:03:14;;;;;;;;;;;;;;;;;;;;;
2024/02/17 00:05:40;;;;;;;;;;;11.50;99.90;;;;;;5014653;28;19918;-76
2024/02/17 00:08:14;;;;;;;;;;;11.50;99.90;;;;;;4993361;28;19940;-78
2024/02/17 00:10:40;;;;;;;;;;;11.50;99.90;;;;;;4982237;28;20547;-77
2024/02/17 00:13:08;;;;;;;;;;;11.50;99.90;;;;;;5019358;28;20659;-76
2024/02/17 00:15:52;;;;;;;;;;;11.60;99.90;;;;;;5002212;28;19924;-77
2024/02/17 00:18:26;;;;;;;;;;;11.50;99.90;;;;;;4989994;28;19969;-76
2024/02/17 00:20:57;;;;;;;;;;;11.50;99.90;;;;;;5029877;28;19923;-77
2024/02/17 00:23:24;;;;;;;;;;;11.40;99.90;;;;;;4985148;28;19921;-77
2024/02/17 00:25:50;;;;;;;;;;;11.40;99.90;;;;;;4994155;28;20332;-77
2024/02/17 00:28:16;;;;;;;;;;;11.40;99.90;;;;;;4993922;28;20630;-77
2024/02/17 00:30:43;;;;;;;;;;;11.40;99.90;;;;;;5010051;28;19963;-76
2024/02/17 00:33:08;;;;;;;;;;;11.40;99.90;;;;;;5002000;28;19925;-76
2024/02/17 00:35:34;;;;;;;;;;;11.40;99.90;;;;;;4992316;28;19988;-76
2024/02/17 00:38:03;;;;;;;;;;;11.40;99.90;;;;;;5000971;28;19924;-76
2024/02/17 00:40:29;;;;;;;;;;;11.40;99.90;;;;;;5017893;28;20003;-76
2024/02/17 00:42:55;;;;;;;;;;;11.40;99.90;;;;;;5001941;28;20043;-76
2024/02/17 00:45:26;;;;;;;;;;;11.40;99.90;;;;;;5017754;28;20048;-76
2024/02/17 00:47:59;;;;;;;;;;;11.40;99.90;;;;;;5017940;28;20285;-77
2024/02/17 00:50:27;;;;;;;;;;;11.40;99.90;;;;;;4988144;28;19918;-76
2024/02/17 00:52:56;;;;;;;;;;;11.40;99.90;;;;;;4997881;28;19965;-77
2024/02/17 00:55:29;;;;;;;;;;;11.40;99.90;;;;;;5021307;28;19949;-77
2024/02/17 00:58:18;;;;;;;;;;;11.40;99.90;;;;;;5025837;28;19921;-77
2024/02/17 01:00:44;;;;;;;;;;;11.40;99.90;;;;;;5014479;28;19927;-76
2024/02/17 01:03:11;;;;;;;;;;;11.40;99.90;;;;;;4997674;28;19921;-77
2024/02/17 01:05:38;;;;;;;;;;;11.40;99.90;;;;;;4997737;28;19921;-77
2024/02/17 01:08:10;;;;;;;;;;;11.40;99.90;;;;;;5026750;28;19944;-77
2024/02/17 01:10:36;;;;;;;;;;;11.30;99.90;;;;;;5016986;28;19992;-77
2024/02/17 01:13:12;;;;;;;;;;;11.30;99.90;;;;;;4996976;28;20025;-77
2024/02/17 01:15:41;;;;;;;;;;;11.30;99.90;;;;;;5009305;28;19944;-77
2024/02/17 01:18:14;;;;;;;;;;;11.30;99.90;;;;;;5021143;28;20012;-77
2024/02/17 01:20:42;;;;;;;;;;;11.30;99.90;;;;;;5037118;28;19917;-77
2024/02/17 01:23:08;;;;;;;;;;;11.30;99.90;;;;;;4996197;28;19933;-76
2024/02/17 01:25:34;;;;;;;;;;;11.30;99.90;;;;;;4995774;28;20248;-76
2024/02/17 01:28:00;;;;;;;;;;;11.20;99.90;;;;;;4999404;28;19924;-76
2024/02/17 01:30:28;;;;;;;;;;;11.30;99.90;;;;;;4999919;28;19917;-77
2024/02/17 01:32:57;;;;;;;;;;;11.20;99.90;;;;;;5016901;28;19917;-76
2024/02/17 01:35:25;;;;;;;;;;;11.30;99.90;;;;;;5014104;28;19921;-76
2024/02/17 01:37:58;;;;;;;;;;;11.30;99.90;;;;;;4999579;28;19914;-78
2024/02/17 01:40:29;;;;;;;;;;;11.20;99.90;;;;;;4998855;28;19917;-77
2024/02/17 01:42:55;;;;;;;;;;;11.20;99.90;;;;;;5003881;28;19948;-76
2024/02/17 01:45:21;;;;;;;;;;;11.20;99.90;;;;;;5000399;28;20329;-78
2024/02/17 01:47:52;;;;;;;;;;;11.20;99.90;;;;;;5017650;28;19932;-77
2024/02/17 01:50:20;;;;;;;;;;;11.20;99.90;;;;;;5013914;28;19917;-77
2024/02/17 01:52:46;;;;;;;;;;;11.10;99.90;;;;;;5028398;28;20363;-78
2024/02/17 01:55:14;;;;;;;;;;;11.10;99.90;;;;;;4998417;28;20033;-77
2024/02/17 01:57:41;;;;;;;;;;;11.10;99.90;;;;;;4999687;28;19924;-76
2024/02/17 02:00:07;;;;;;;;;;;11.00;99.90;;;;;;4988088;28;20032;-77
2024/02/17 02:02:36;;;;;;;;;;;11.00;99.90;;;;;;5008651;28;19980;-77
2024/02/17 02:05:02;;;;;;;;;;;11.00;99.90;;;;;;4990817;28;20000;-76
2024/02/17 02:07:28;;;;;;;;;;;11.00;99.90;;;;;;5012709;28;19960;-77
2024/02/17 02:09:56;;;;;;;;;;;11.10;99.90;;;;;;4993101;28;20392;-76
2024/02/17 02:12:22;;;;;;;;;;;11.20;99.90;;;;;;5001056;28;19917;-76
2024/02/17 02:15:09;;;;;;;;;;;11.20;99.90;;;;;;5008804;28;19922;-76
2024/02/17 02:17:40;;;;;;;;;;;11.10;99.90;;;;;;5000604;28;19913;-76
2024/02/17 02:20:06;;;;;;;;;;;11.10;99.90;;;;;;5002001;28;19913;-76
2024/02/17 02:22:33;;;;;;;;;;;11.10;99.90;;;;;;5016075;28;19977;-76
2024/02/17 02:24:59;;;;;;;;;;;11.10;99.90;;;;;;4980944;28;19932;-75
2024/02/17 02:27:25;;;;;;;;;;;11.00;99.90;;;;;;4997962;28;20281;-76
2024/02/17 02:29:52;;;;;;;;;;;11.00;99.90;;;;;;5004905;28;19933;-76
2024/02/17 02:32:18;;;;;;;;;;;11.10;99.90;;;;;;4999289;28;19923;-75
2024/02/17 02:34:47;;;;;;;;;;;10.90;99.90;;;;;;4980344;28;20241;-76
2024/02/17 02:37:16;;;;;;;;;;;10.90;99.90;;;;;;4982722;28;19970;-75
2024/02/17 02:39:42;;;;;;;;;;;10.90;99.90;;;;;;4983573;28;19917;-76
2024/02/17 02:42:11;;;;;;;;;;;10.90;99.90;;;;;;4976581;28;19922;-76
2024/02/17 02:44:36;;;;;;;;;;;10.90;99.90;;;;;;5009807;28;19922;-75
2024/02/17 02:47:02;;;;;;;;;;;10.80;99.90;;;;;;5000148;28;19924;-76
2024/02/17 02:49:31;;;;;;;;;;;10.80;99.90;;;;;;4984387;28;19931;-76
2024/02/17 02:51:59;;;;;;;;;;;10.80;99.90;;;;;;4999312;28;19918;-76
2024/02/17 02:54:25;;;;;;;;;;;10.80;99.90;;;;;;4964599;28;19953;-75
2024/02/17 02:56:51;;;;;;;;;;;10.80;99.90;;;;;;4983010;28;20350;-76
2024/02/17 02:59:17;;;;;;;;;;;10.80;99.90;;;;;;4996597;28;19996;-76
2024/02/17 03:01:46;;;;;;;;;;;10.70;99.90;;;;;;4965840;28;19929;-77
2024/02/17 03:04:14;;;;;;;;;;;10.70;99.90;;;;;;4976385;28;20360;-77
2024/02/17 03:06:40;;;;;;;;;;;10.70;99.90;;;;;;4994043;28;19917;-76
2024/02/17 03:09:06;;;;;;;;;;;10.60;99.90;;;;;;4976788;28;19921;-77
2024/02/17 03:11:37;;;;;;;;;;;10.60;99.90;;;;;;5002184;28;19921;-77
2024/02/17 03:14:06;;;;;;;;;;;10.60;99.90;;;;;;4999178;28;19953;-77
2024/02/17 03:16:31;;;;;;;;;;;10.60;99.90;;;;;;4980879;28;19953;-77
2024/02/17 03:18:58;;;;;;;;;;;10.60;99.90;;;;;;4987814;28;19917;-75
2024/02/17 03:21:24;;;;;;;;;;;10.60;99.90;;;;;;4986677;28;19930;-76
2024/02/17 03:23:50;;;;;;;;;;;10.60;99.90;;;;;;5001576;28;20012;-76
2024/02/17 03:26:21;;;;;;;;;;;10.60;99.90;;;;;;4998380;28;19913;-76
2024/02/17 03:28:47;;;;;;;;;;;10.60;99.90;;;;;;4986371;28;19917;-75
2024/02/17 03:31:15;;;;;;;;;;;10.60;99.90;;;;;;5011486;28;19921;-75
2024/02/17 03:33:47;;;;;;;;;;;10.60;99.90;;;;;;5002399;28;20272;-75
2024/02/17 03:36:13;;;;;;;;;;;10.60;99.90;;;;;;5001109;28;19913;-74
2024/02/17 03:38:42;;;;;;;;;;;10.60;99.90;;;;;;5014632;28;19928;-74
2024/02/17 03:41:07;;;;;;;;;;;10.60;99.90;;;;;;5017315;28;19913;-74
2024/02/17 03:43:33;;;;;;;;;;;10.60;99.90;;;;;;5015505;28;20356;-74
2024/02/17 03:45:59;;;;;;;;;;;10.60;99.90;;;;;;4995749;28;20364;-74
2024/02/17 03:48:25;;;;;;;;;;;10.60;99.90;;;;;;5003292;28;20022;-75
2024/02/17 03:50:53;;;;;;;;;;;10.60;99.90;;;;;;5003000;28;20010;-76
2024/02/17 03:53:22;;;;;;;;;;;10.40;99.90;;;;;;4986193;28;19921;-75
2024/02/17 03:55:50;;;;;;;;;;;10.50;99.90;;;;;;4986301;28;19913;-75
2024/02/17 03:58:18;;;;;;;;;;;10.40;99.90;;;;;;4986451;28;19913;-76
2024/02/17 04:00:44;;;;;;;;;;;10.40;99.90;;;;;;5001793;28;20623;-75
2024/02/17 04:03:10;;;;;;;;;;;10.30;99.90;;;;;;4982949;28;19980;-75
2024/02/17 04:05:38;;;;;;;;;;;10.30;99.90;;;;;;4984408;28;19917;-74
2024/02/17 04:08:06;;;;;;;;;;;10.30;99.90;;;;;;4986852;28;19917;-74
2024/02/17 04:10:32;;;;;;;;;;;10.30;99.90;;;;;;5007801;28;20364;-75
2024/02/17 04:13:00;;;;;;;;;;;10.30;99.90;;;;;;5032864;28;20004;-75
2024/02/17 04:15:26;;;;;;;;;;;10.30;99.90;;;;;;4982554;28;19924;-74
2024/02/17 04:17:54;;;;;;;;;;;10.30;99.90;;;;;;5010026;28;20218;-76
2024/02/17 04:20:20;;;;;;;;;;;10.20;99.90;;;;;;4966231;28;19913;-75
2024/02/17 04:23:06;;;;;;;;;;;10.30;99.90;;;;;;4979006;28;19979;-75
2024/02/17 04:25:36;;;;;;;;;;;10.10;99.90;;;;;;4990636;28;19917;-76
2024/02/17 04:28:05;;;;;;;;;;;10.10;99.90;;;;;;5000013;28;20330;-74
2024/02/17 04:30:31;;;;;;;;;;;10.00;99.90;;;;;;5010223;28;20290;-74
2024/02/17 04:32:58;;;;;;;;;;;10.10;99.90;;;;;;4998175;28;20052;-73
2024/02/17 04:35:27;;;;;;;;;;;10.10;99.90;;;;;;5015692;28;19949;-74
2024/02/17 04:37:56;;;;;;;;;;;10.20;99.90;;;;;;5018350;28;19917;-75
2024/02/17 04:40:22;;;;;;;;;;;10.10;99.90;;;;;;4982577;28;19928;-75
2024/02/17 04:42:48;;;;;;;;;;;10.10;99.90;;;;;;5004738;28;19917;-75
2024/02/17 04:45:14;;;;;;;;;;;10.00;99.90;;;;;;4985873;28;19935;-74
2024/02/17 04:47:55;;;;;;;;;;;9.90;99.90;;;;;;5000776;28;19917;-75
2024/02/17 04:50:23;;;;;;;;;;;10.00;99.90;;;;;;4985045;28;19924;-75
2024/02/17 04:52:54;;;;;;;;;;;10.00;99.90;;;;;;5017602;28;19920;-75
2024/02/17 04:55:33;;;;;;;;;;;10.10;99.90;;;;;;5028830;28;19928;-75
2024/02/17 04:57:58;;;;;;;;;;;10.00;99.90;;;;;;5014232;28;20004;-75
2024/02/17 05:00:24;;;;;;;;;;;10.00;99.90;;;;;;4985929;28;19999;-75
2024/02/17 05:02:50;;;;;;;;;;;10.00;99.90;;;;;;5034453;28;19925;-75
2024/02/17 05:05:18;;;;;;;;;;;10.10;99.90;;;;;;5003321;28;20292;-75
2024/02/17 05:07:50;;;;;;;;;;;10.00;99.90;;;;;;5033033;28;20397;-75
2024/02/17 05:10:16;;;;;;;;;;;10.00;99.90;;;;;;5003035;28;20661;-74
2024/02/17 05:12:42;;;;;;;;;;;10.00;99.90;;;;;;4987626;28;19912;-74
2024/02/17 05:15:15;;;;;;;;;;;10.00;99.90;;;;;;4986534;28;19913;-75
2024/02/17 05:17:45;;;;;;;;;;;9.90;99.90;;;;;;5001196;28;19928;-75
2024/02/17 05:20:14;;;;;;;;;;;10.00;99.90;;;;;;5010409;28;20012;-75
2024/02/17 05:22:42;;;;;;;;;;;9.90;99.90;;;;;;5007080;28;19983;-75
2024/02/17 05:25:08;;;;;;;;;;;9.80;99.90;;;;;;4996877;28;19917;-74
2024/02/17 05:27:36;;;;;;;;;;;9.80;99.90;;;;;;4997608;28;19968;-74
2024/02/17 05:30:02;;;;;;;;;;;9.80;99.90;;;;;;5015310;28;19913;-74
2024/02/17 05:32:28;;;;;;;;;;;9.90;99.90;;;;;;5016210;28;19921;-75
2024/02/17 05:34:54;;;;;;;;;;;9.90;99.90;;;;;;4984188;28;20245;-75
2024/02/17 05:37:20;;;;;;;;;;;9.90;99.90;;;;;;4999952;28;19913;-75
2024/02/17 05:39:47;;;;;;;;;;;9.90;99.90;;;;;;5007978;28;19913;-75
2024/02/17 05:42:22;;;;;;;;;;;10.00;99.90;;;;;;5000732;28;19920;-75
2024/02/17 05:44:50;;;;;;;;;;;9.90;99.90;;;;;;5016937;28;20289;-76
2024/02/17 05:47:16;;;;;;;;;;;9.80;99.90;;;;;;5000652;28;19979;-75
2024/02/17 05:49:42;;;;;;;;;;;9.90;99.90;;;;;;4993095;28;19925;-76
2024/02/17 05:52:13;;;;;;;;;;;9.90;99.90;;;;;;4985710;28;19959;-75
2024/02/17 05:54:48;;;;;;;;;;;9.90;99.90;;;;;;4999628;28;19932;-75
2024/02/17 05:57:14;;;;;;;;;;;9.90;99.90;;;;;;4991619;28;20049;-75
2024/02/17 05:59:47;;;;;;;;;;;9.90;99.90;;;;;;4993197;28;20016;-74
2024/02/17 06:02:14;;;;;;;;;;;9.90;99.90;;;;;;4997561;28;19928;-76
2024/02/17 06:04:42;;;;;;;;;;;9.80;99.90;;;;;;5016596;28;19928;-75
2024/02/17 06:07:08;;;;;;;;;;;9.90;99.90;;;;;;4988844;28;19914;-76
2024/02/17 06:09:40;;;;;;;;;;;10.00;99.90;;;;;;4982197;28;19914;-75
2024/02/17 06:12:05;;;;;;;;;;;9.90;99.90;;;;;;4980557;28;19940;-76
2024/02/17 06:14:31;;;;;;;;;;;9.90;99.90;;;;;;4987639;28;19979;-75
2024/02/17 06:17:01;;;;;;;;;;;9.90;99.90;;;;;;4995102;28;19992;-75
2024/02/17 06:22:19;;;;;;;;;;;9.80;99.90;;;;;;5014568;28;19924;-75
2024/02/17 06:24:48;;;;;;;;;;;9.80;99.90;;;;;;4962539;28;20457;-75
2024/02/17 06:27:17;;;;;;;;;;;9.80;99.90;;;;;;4968197;28;20016;-75
2024/02/17 06:29:44;;;;;;;;;;;9.80;99.90;;;;;;4992546;28;19924;-75
2024/02/17 06:32:10;;;;;;;;;;;9.80;99.90;;;;;;4979072;28;19914;-74
2024/02/17 06:34:38;;;;;;;;;;;9.80;99.90;;;;;;4977495;28;20266;-75
2024/02/17 06:37:06;;;;;;;;;;;9.80;99.90;;;;;;4997171;28;19925;-76
2024/02/17 06:39:34;;;;;;;;;;;9.80;99.90;;;;;;4996725;28;20389;-75
2024/02/17 06:42:00;;;;;;;;;;;9.80;99.90;;;;;;4977936;28;19925;-75
2024/02/17 06:44:28;;;;;;;;;;;9.80;99.90;;;;;;4971264;28;19921;-75
2024/02/17 06:46:59;;;;;;;;;;;9.80;99.90;;;;;;4980593;28;20249;-74
2024/02/17 06:49:27;;;;;;;;;;;9.80;99.90;;;;;;5004640;28;19913;-75
2024/02/17 06:51:54;;;;;;;;;;;9.80;99.90;;;;;;4989084;28;20311;-75
2024/02/17 06:54:20;;;;;;;;;;;9.80;99.90;;;;;;4983851;28;19989;-75
2024/02/17 06:56:46;;;;;;;;;;;9.80;99.90;;;;;;4999878;28;20350;-76
2024/02/17 06:59:11;;;;;;;;;;;9.80;99.90;;;;;;5015730;28;20015;-76
2024/02/17 07:01:37;;;;;;;;;;;9.80;99.90;;;;;;4983762;28;19929;-75
2024/02/17 07:04:03;;;;;;;;;;;9.80;99.90;;;;;;5013689;28;20397;-74
2024/02/17 07:06:29;;;;;;;;;;;9.80;99.90;;;;;;4987711;28;19954;-74
2024/02/17 07:08:57;;;;;;;;;;;9.80;99.90;;;;;;4980294;28;19914;-76
2024/02/17 07:11:23;;;;;;;;;;;9.80;99.90;;;;;;5013398;28;20000;-74
2024/02/17 07:13:49;;;;;;;;;;;9.80;99.90;;;;;;5007563;28;20012;-76
2024/02/17 07:16:14;;;;;;;;;;;9.90;99.90;;;;;;5029410;28;19925;-75
2024/02/17 07:18:42;;;;;;;;;;;9.80;99.90;;;;;;4980193;28;19918;-74
2024/02/17 07:21:08;;;;;;;;;;;9.90;99.90;;;;;;4980661;28;19975;-75
2024/02/17 07:23:34;;;;;;;;;;;9.90;99.90;;;;;;5022921;28;19921;-74
2024/02/17 07:26:02;;;;;;;;;;;9.90;99.90;;;;;;4976353;28;20379;-76
2024/02/17 07:28:28;;;;;;;;;;;9.80;99.90;;;;;;5002379;28;19917;-76
2024/02/17 07:30:54;;;;;;;;;;;9.90;99.90;;;;;;5003011;28;20004;-76
2024/02/17 07:33:20;;;;;;;;;;;9.80;99.90;;;;;;5017385;28;19913;-76
2024/02/17 07:35:46;;;;;;;;;;;9.80;99.90;;;;;;5001471;28;20029;-76
2024/02/17 07:38:11;;;;;;;;;;;9.80;99.90;;;;;;5012334;28;19932;-76
2024/02/17 07:40:38;;;;;;;;;;;9.80;99.90;;;;;;5018835;28;20003;-76
2024/02/17 07:43:04;;;;;;;;;;;9.80;99.90;;;;;;5000045;28;20322;-76
2024/02/17 07:45:30;;;;;;;;;;;9.70;99.90;;;;;;4993468;28;19975;-76
2024/02/17 07:47:56;;;;;;;;;;;9.70;99.90;;;;;;5015193;28;19920;-78
2024/02/17 07:50:22;;;;;;;;;;;9.80;99.90;;;;;;5005659;28;19913;-77
2024/02/17 07:52:48;;;;;;;;;;;9.70;99.90;;;;;;4982931;28;19964;-77
2024/02/17 07:55:14;;;;;;;;;;;9.70;99.90;;;;;;5010696;28;19967;-76
2024/02/17 07:57:40;;;;;;;;;;;9.70;99.90;;;;;;4977906;28;19921;-77
2024/02/17 08:00:06;;;;;;;;;;;9.80;99.90;;;;;;5008777;28;19913;-77
2024/02/17 08:02:32;;;;;;;;;;;9.70;99.90;;;;;;5026803;28;19928;-76
2024/02/17 08:04:57;;;;;;;;;;;9.60;99.90;;;;;;5031414;28;19922;-77
2024/02/17 08:07:23;;;;;;;;;;;9.70;99.90;;;;;;4999145;28;19917;-76
2024/02/17 08:09:55;;;;;;;;;;;9.80;99.90;;;;;;5020068;28;19921;-77
2024/02/17 08:12:23;;;;;;;;;;;9.80;99.90;;;;;;5014461;28;20344;-77
2024/02/17 08:14:51;;;;;;;;;;;9.70;99.90;;;;;;5007188;28;19971;-76
2024/02/17 08:17:16;;;;;;;;;;;9.70;99.90;;;;;;5013033;28;19917;-76
2024/02/17 08:19:42;;;;;;;;;;;9.70;99.90;;;;;;5017269;28;19917;-77
2024/02/17 08:22:08;;;;;;;;;;;9.70;99.90;;;;;;4995574;28;19917;-76
2024/02/17 08:24:34;;;;;;;;;;;9.70;99.90;;;;;;4993802;28;19922;-77
2024/02/17 08:27:00;;;;;;;;;;;9.70;99.90;;;;;;4981562;28;19949;-76
2024/02/17 08:29:25;;;;;;;;;;;9.80;99.90;;;;;;4981207;28;19928;-77
2024/02/17 08:31:53;;;;;;;;;;;9.80;99.90;;;;;;4971281;28;20229;-76
2024/02/17 08:34:19;;;;;;;;;;;9.80;99.90;;;;;;4958995;28;20007;-76
2024/02/17 08:36:45;;;;;;;;;;;9.70;99.90;;;;;;4980686;28;19953;-75
2024/02/17 08:39:13;;;;;;;;;;;9.80;99.90;;;;;;4992382;28;20402;-76
2024/02/17 08:41:39;;;;;;;;;;;9.60;99.90;;;;;;4975977;28;19925;-75
2024/02/17 08:44:07;;;;;;;;;;;9.80;99.90;;;;;;4987970;28;19922;-76
2024/02/17 08:46:33;;;;;;;;;;;9.70;99.90;;;;;;4993135;28;19917;-75
2024/02/17 08:49:06;;;;;;;;;;;10.00;99.90;;;;;;4967170;28;19934;-75
2024/02/17 08:51:32;;;;;;;;;;;9.90;99.90;;;;;;4984664;28;19957;-76
2024/02/17 08:53:58;;;;;;;;;;;9.90;99.90;;;;;;4999127;28;19956;-75
2024/02/17 08:56:24;;;;;;;;;;;9.90;99.90;;;;;;4965207;28;20012;-75
2024/02/17 08:58:50;;;;;;;;;;;9.80;99.90;;;;;;4977866;28;20616;-75
2024/02/17 09:01:18;;;;;;;;;;;9.90;99.90;;;;;;4979815;28;19996;-76
2024/02/17 09:03:47;;;;;;;;;;;9.90;99.90;;;;;;4995466;28;19918;-76
2024/02/17 09:06:18;;;;;;;;;;;9.80;99.90;;;;;;4998238;28;19925;-75
2024/02/17 09:08:44;;;;;;;;;;;9.90;99.90;;;;;;4970419;28;20393;-77
2024/02/17 09:11:15;;;;;;;;;;;9.90;99.90;;;;;;4986012;28;20334;-75
2024/02/17 09:13:52;;;;;;;;;;;9.90;99.90;;;;;;4962934;28;20627;-76
2024/02/17 09:16:18;;;;;;;;;;;9.90;99.90;;;;;;4986064;28;19917;-75
2024/02/17 09:18:49;;;;;;;;;;;10.00;99.90;;;;;;5007805;28;19913;-81
2024/02/17 09:21:18;;;;;;;;;;;10.10;99.90;;;;;;4996740;28;19996;-81
2024/02/17 09:23:57;;;;;;;;;;;10.20;99.90;;;;;;5024196;28;19925;-80
2024/02/17 09:27:11;;;;;;;;;;;10.30;99.90;;;;;;5023002;28;19931;-81
2024/02/17 09:32:53;;;;;;;;;;;10.50;99.90;;;;;;5041341;28;19921;-79
2024/02/17 09:36:02;;;;;;;;;;;10.80;99.90;;;;;;5011504;28;19924;-81
2024/02/17 09:38:51;;;;;;;;;;;10.70;99.90;;;;;;5031554;28;20234;-79
2024/02/17 09:45:15;;;;;;;;;;;10.60;99.90;;;;;;5022737;23;19989;-79
2024/02/17 09:47:53;;;;;;;;;;;10.70;99.90;;;;;;4964943;28;19918;-77
2024/02/17 09:50:24;;;;;;;;;;;10.70;99.90;;;;;;4956407;28;20536;-80
2024/02/17 09:52:55;;;;;;;;;;;10.60;99.90;;;;;;4958174;28;20009;-80
2024/02/17 09:55:22;;;;;;;;;;;10.70;99.90;;;;;;4976791;28;19922;-80
2024/02/17 09:57:50;;;;;;;;;;;10.80;99.90;;;;;;4949091;29;20409;-79
2024/02/17 10:00:19;;;;;;;;;;;10.80;99.90;;;;;;4961008;28;19918;-79
2024/02/17 10:02:48;;;;;;;;;;;10.80;99.90;;;;;;4958663;28;20322;-80
2024/02/17 10:05:24;;;;;;;;;;;10.80;99.90;;;;;;4926782;29;20491;-80
2024/02/17 10:08:15;;;;;;;;;;;10.90;99.90;;;;;;4942576;28;20001;-80
2024/02/17 10:13:36;;;;;;;;;;;10.90;99.90;;;;;;4920656;28;20231;-80
2024/02/17 10:16:30;;;;;;;;;;;11.00;99.90;;;;;;4957111;28;20411;-80
2024/02/17 10:19:03;;;;;;;;;;;11.10;99.90;;;;;;4968485;28;19965;-80
2024/02/17 10:21:34;;;;;;;;;;;11.10;99.90;;;;;;4955018;28;19914;-78
2024/02/17 10:24:02;;;;;;;;;;;11.00;99.90;;;;;;4933744;28;19930;-79
2024/02/17 10:26:28;;;;;;;;;;;11.00;99.90;;;;;;4977236;28;19925;-73
2024/02/17 10:28:57;;;;;;;;;;;10.80;99.90;;;;;;4989238;28;19918;-74
2024/02/17 10:31:44;;;;;;;;;;;10.60;99.90;;;;;;4993502;28;19952;-74
2024/02/17 10:34:36;;;;;;;;;;;10.60;99.90;;;;;;4989642;28;19977;-73
2024/02/17 10:37:23;;;;;;;;;;;10.60;99.90;;;;;;4964137;28;19918;-73
2024/02/17 10:39:55;;;;;;;;;;;10.70;99.90;;;;;;4945342;28;19922;-74
2024/02/17 10:42:23;;;;;;;;;;;10.70;99.90;;;;;;4951722;28;19918;-73
2024/02/17 10:44:52;;;;;;;;;;;10.80;99.90;;;;;;4961600;28;19936;-74
2024/02/17 10:47:17;;;;;;;;;;;11.00;99.90;;;;;;4943648;29;20670;-74
2024/02/17 10:49:48;;;;;;;;;;;11.10;99.90;;;;;;4947305;28;20004;-74
2024/02/17 10:52:18;;;;;;;;;;;11.50;99.90;;;;;;4993434;28;19948;-75
2024/02/17 10:54:57;;;;;;;;;;;11.60;99.90;;;;;;4976180;28;19924;-75
2024/02/17 10:57:30;;;;;;;;;;;11.80;99.90;;;;;;5012419;28;19914;-74
2024/02/17 11:00:03;;;;;;;;;;;11.70;99.90;;;;;;4984118;28;20086;-74
2024/02/17 11:02:42;;;;;;;;;;;11.50;99.90;;;;;;4976338;28;20354;-74
2024/02/17 11:07:55;;;;;;;;;;;11.30;99.90;;;;;;4953933;28;19926;-73
2024/02/17 11:13:22;;;;;;;;;;;11.60;99.90;;;;;;4959878;28;19922;-74
2024/02/17 11:16:23;;;;;;;;;;;11.40;99.90;;;;;;4960429;28;19918;-73
2024/02/17 11:18:52;;;;;;;;;;;11.40;99.90;;;;;;4946745;28;20385;-74
2024/02/17 11:21:25;;;;;;;;;;;11.40;99.90;;;;;;4945473;28;20335;-76
2024/02/17 11:24:00;;;;;;;;;;;11.20;99.90;;;;;;4974969;28;19918;-73
2024/02/17 11:26:28;;;;;;;;;;;11.20;99.90;;;;;;4987640;28;19922;-73
2024/02/17 11:28:57;;;;;;;;;;;11.10;99.90;;;;;;5001787;28;20768;-74
2024/02/17 11:31:32;;;;;;;;;;;11.00;99.90;;;;;;4961224;28;19917;-74
2024/02/17 11:34:01;;;;;;;;;;;10.90;99.90;;;;;;4959983;28;19941;-76
2024/02/17 11:36:28;;;;;;;;;;;11.00;99.90;;;;;;4947757;28;20306;-74
2024/02/17 11:39:00;;;;;;;;;;;10.90;99.90;;;;;;4973598;28;20405;-74
2024/02/17 11:41:47;;;;;;;;;;;11.00;99.90;;;;;;4964833;28;20234;-74
2024/02/17 11:44:19;;;;;;;;;;;10.90;99.90;;;;;;4977704;28;19930;-74
2024/02/17 11:46:48;;;;;;;;;;;10.80;99.90;;;;;;4976672;28;20047;-74
2024/02/17 11:49:14;;;;;;;;;;;10.70;99.90;;;;;;4963447;28;19918;-74
2024/02/17 11:51:40;;;;;;;;;;;10.60;99.90;;;;;;4990653;28;19920;-74
2024/02/17 11:54:06;;;;;;;;;;;10.60;99.90;;;;;;4975715;28;19922;-73
2024/02/17 11:56:34;;;;;;;;;;;10.70;99.90;;;;;;4962494;28;20012;-73
2024/02/17 11:59:05;;;;;;;;;;;10.50;99.90;;;;;;4946521;28;19921;-74
2024/02/17 12:01:40;;;;;;;;;;;10.50;99.90;;;;;;4963770;28;19913;-74
2024/02/17 12:04:11;;;;;;;;;;;10.50;99.90;;;;;;4994603;28;19926;-74
2024/02/17 12:06:42;;;;;;;;;;;10.60;99.90;;;;;;4966667;28;19914;-74
2024/02/17 12:09:08;;;;;;;;;;;10.60;99.90;;;;;;4977789;28;19918;-74
2024/02/17 12:11:34;;;;;;;;;;;10.60;99.90;;;;;;4977021;28;20236;-75
2024/02/17 12:14:03;;;;;;;;;;;10.60;99.90;;;;;;4979643;28;20424;-75
2024/02/17 12:16:29;;;;;;;;;;;10.60;99.90;;;;;;4977432;28;19918;-75
2024/02/17 12:18:54;;;;;;;;;;;10.50;99.90;;;;;;4967676;28;19924;-75
2024/02/17 12:21:20;;;;;;;;;;;10.40;99.90;;;;;;4942015;28;19918;-74
2024/02/17 12:23:49;;;;;;;;;;;10.50;99.90;;;;;;4991472;28;20016;-74
2024/02/17 12:26:14;;;;;;;;;;;10.40;99.90;;;;;;4991849;28;19953;-77
2024/02/17 12:28:52;;;;;;;;;;;10.60;99.90;;;;;;4947220;28;20663;-79
2024/02/17 12:31:20;;;;;;;;;;;10.60;99.90;;;;;;4971826;28;19925;-77
2024/02/17 12:33:52;;;;;;;;;;;10.70;99.90;;;;;;4961922;28;20119;-74
2024/02/17 12:36:24;;;;;;;;;;;10.70;99.90;;;;;;4977132;28;19964;-78
2024/02/17 12:38:59;;;;;;;;;;;10.90;99.90;;;;;;4963256;28;19925;-74
2024/02/17 12:41:25;;;;;;;;;;;11.20;99.90;;;;;;4982376;28;20338;-74
2024/02/17 12:43:59;;;;;;;;;;;11.90;99.90;;;;;;4977943;28;19929;-76
2024/02/17 12:46:28;;;;;;;;;;;12.30;99.90;;;;;;4977211;28;19932;-74
2024/02/17 12:48:54;;;;;;;;;;;12.00;99.90;;;;;;4940476;28;19928;-75
2024/02/17 12:51:22;;;;;;;;;;;12.00;99.90;;;;;;4971028;28;19922;-74
2024/02/17 12:53:56;;;;;;;;;;;12.30;99.90;;;;;;5006430;28;19917;-79
2024/02/17 12:56:31;;;;;;;;;;;12.20;99.90;;;;;;4971143;28;19917;-79
2024/02/17 12:59:06;;;;;;;;;;;12.20;99.90;;;;;;4962825;28;20584;-79
2024/02/17 13:01:32;;;;;;;;;;;12.60;99.90;;;;;;4978063;28;20531;-80
2024/02/17 13:04:01;;;;;;;;;;;12.50;99.90;;;;;;4954081;28;19921;-75
2024/02/17 13:06:27;;;;;;;;;;;12.60;99.90;;;;;;4962314;28;20297;-75
2024/02/17 13:08:53;;;;;;;;;;;12.70;99.90;;;;;;4993431;28;19914;-75
2024/02/17 13:11:31;;;;;;;;;;;13.30;99.90;;;;;;5009667;28;19953;-74
2024/02/17 13:13:56;;;;;;;;;;;13.30;99.90;;;;;;4976927;28;19967;-80
2024/02/17 13:16:42;;;;;;;;;;;12.70;99.90;;;;;;4995158;28;19921;-75
2024/02/17 13:19:10;;;;;;;;;;;12.50;99.90;;;;;;4960854;28;19917;-76
2024/02/17 13:21:36;;;;;;;;;;;12.30;99.90;;;;;;4984713;28;19922;-76
2024/02/17 13:24:05;;;;;;;;;;;12.20;99.90;;;;;;4961648;28;19922;-78
2024/02/17 13:26:34;;;;;;;;;;;12.00;99.90;;;;;;4962151;28;19924;-78
2024/02/17 13:29:09;;;;;;;;;;;12.00;99.90;;;;;;4962310;28;19952;-74
2024/02/17 13:31:35;;;;;;;;;;;12.30;99.90;;;;;;4946599;28;20327;-74
2024/02/17 13:34:04;;;;;;;;;;;12.20;99.90;;;;;;4966561;28;19929;-75
2024/02/17 13:36:29;;;;;;;;;;;12.40;99.90;;;;;;5007252;28;19918;-74
2024/02/17 13:39:03;;;;;;;;;;;12.40;99.90;;;;;;4957736;28;19925;-75
2024/02/17 13:41:29;;;;;;;;;;;12.30;99.90;;;;;;4993414;28;19929;-74
2024/02/17 13:43:54;;;;;;;;;;;12.50;99.90;;;;;;4957057;28;19929;-74
2024/02/17 13:46:20;;;;;;;;;;;12.50;99.90;;;;;;4958575;28;19921;-75
2024/02/17 13:48:46;;;;;;;;;;;12.60;99.90;;;;;;4992597;28;20028;-75
2024/02/17 13:51:21;;;;;;;;;;;12.70;99.90;;;;;;4986397;28;19929;-75
2024/02/17 13:53:46;;;;;;;;;;;13.10;99.90;;;;;;4973817;28;19972;-75
2024/02/17 13:56:12;;;;;;;;;;;13.20;99.90;;;;;;4961221;28;20028;-74
2024/02/17 13:58:38;;;;;;;;;;;13.10;99.90;;;;;;4961057;28;20447;-74
2024/02/17 14:01:04;;;;;;;;;;;12.90;99.90;;;;;;4945135;28;19918;-74
2024/02/17 14:03:30;;;;;;;;;;;12.60;99.90;;;;;;4977941;28;19921;-74
2024/02/17 14:05:59;;;;;;;;;;;12.50;99.90;;;;;;4972721;28;19972;-75
2024/02/17 14:08:46;;;;;;;;;;;12.30;99.90;;;;;;4943466;28;19918;-75
2024/02/17 14:11:11;;;;;;;;;;;12.20;99.90;;;;;;4972362;28;20379;-75
2024/02/17 14:13:39;;;;;;;;;;;12.20;99.90;;;;;;4975516;28;19918;-74
2024/02/17 14:16:07;;;;;;;;;;;12.40;99.90;;;;;;4975143;28;20246;-75
2024/02/17 14:18:39;;;;;;;;;;;12.50;99.90;;;;;;4960574;28;19980;-75
2024/02/17 14:21:11;;;;;;;;;;;12.60;99.90;;;;;;4950797;28;19918;-75
2024/02/17 14:23:39;;;;;;;;;;;12.90;99.90;;;;;;4976051;28;19932;-75
2024/02/17 14:26:14;;;;;;;;;;;13.10;99.90;;;;;;4944152;28;20020;-75
2024/02/17 14:28:40;;;;;;;;;;;13.10;99.90;;;;;;4992103;28;19941;-74
2024/02/17 14:31:06;;;;;;;;;;;13.20;99.90;;;;;;4969169;28;19922;-75
2024/02/17 14:33:32;;;;;;;;;;;13.40;99.90;;;;;;4984867;28;19921;-74
2024/02/17 14:36:19;;;;;;;;;;;13.20;99.90;;;;;;5004771;28;19922;-76
2024/02/17 14:39:00;;;;;;;;;;;13.30;99.90;;;;;;4956399;28;19949;-76
2024/02/17 16:05:38;;;;;;;;;;;12.90;99.90;;;;;;5957885;22;19934;-76
2024/02/17 16:08:04;;;;;;;;;;;12.80;99.90;;;;;;4953419;28;19923;-75
2024/02/17 16:10:30;;;;;;;;;;;12.10;99.90;;;;;;4973041;28;20302;-76
2024/02/17 16:12:55;;;;;;;;;;;11.80;99.90;;;;;;4972578;28;19918;-76
2024/02/17 16:15:22;;;;;;;;;;;11.80;99.90;;;;;;4954678;28;19954;-76